sensor_id;sensor_type;location;lat;lon;timestamp;P1;durP1;ratioP1;P2;durP2;ratioP2
31112;SDS011;17763;48.730;9.136;2023-11-21T00:01:04;12.25;;;3.10;;
31112;SDS011;17763;48.730;9.136;2023-11-21T00:03:30;6.93;;;2.55;;
31112;SDS011;17763;48.730;9.136;2023-11-21T00:05:58;5.20;;;2.85;;
31112;SDS011;17763;48.730;9.136;2023-11-21T00:08:27;8.40;;;2.55;;
31112;SDS011;17763;48.730;9.136;2023-11-21T00:10:56;6.68;;;2.78;;
31112;SDS011;17763;48.730;9.136;2023-11-21T00:13:22;8.02;;;2.60;;
31112;SDS011;17763;48.730;9.136;2023-11-21T00:15:47;8.73;;;3.30;;
31112;SDS011;17763;48.730;9.136;2023-11-21T00:18:16;6.63;;;2.90;;
31112;SDS011;17763;48.730;9.136;2023-11-21T00:20:41;4.60;;;2.55;;
31112;SDS011;17763;48.730;9.136;2023-11-21T00:23:07;7.60;;;3.20;;
31112;SDS011;17763;48.730;9.136;2023-11-21T00:25:37;10.05;;;3.42;;
31112;SDS011;17763;48.730;9.136;2023-11-21T00:28:05;8.73;;;2.88;;
31112;SDS011;17763;48.730;9.136;2023-11-21T00:30:31;5.18;;;2.78;;
31112;SDS011;17763;48.730;9.136;2023-11-21T00:32:57;7.28;;;3.35;;
31112;SDS011;17763;48.730;9.136;2023-11-21T00:35:25;8.27;;;3.65;;
31112;SDS011;17763;48.730;9.136;2023-11-21T00:37:50;6.88;;;2.72;;
31112;SDS011;17763;48.730;9.136;2023-11-21T00:40:18;6.38;;;2.38;;
31112;SDS011;17763;48.730;9.136;2023-11-21T00:42:47;5.43;;;2.50;;
31112;SDS011;17763;48.730;9.136;2023-11-21T00:45:15;13.38;;;2.92;;
31112;SDS011;17763;48.730;9.136;2023-11-21T00:47:43;6.47;;;2.17;;
31112;SDS011;17763;48.730;9.136;2023-11-21T00:50:09;9.02;;;2.38;;
31112;SDS011;17763;48.730;9.136;2023-11-21T00:52:35;3.50;;;2.17;;
31112;SDS011;17763;48.730;9.136;2023-11-21T00:55:01;9.48;;;2.28;;
31112;SDS011;17763;48.730;9.136;2023-11-21T00:57:28;5.53;;;2.00;;
31112;SDS011;17763;48.730;9.136;2023-11-21T00:59:53;4.03;;;2.55;;
31112;SDS011;17763;48.730;9.136;2023-11-21T01:02:19;7.10;;;2.25;;
31112;SDS011;17763;48.730;9.136;2023-11-21T01:04:45;7.25;;;2.70;;
31112;SDS011;17763;48.730;9.136;2023-11-21T01:07:12;6.50;;;2.03;;
31112;SDS011;17763;48.730;9.136;2023-11-21T01:09:40;5.70;;;1.88;;
31112;SDS011;17763;48.730;9.136;2023-11-21T01:12:09;5.22;;;2.10;;
31112;SDS011;17763;48.730;9.136;2023-11-21T01:14:35;6.05;;;2.00;;
31112;SDS011;17763;48.730;9.136;2023-11-21T01:17:04;4.57;;;1.73;;
31112;SDS011;17763;48.730;9.136;2023-11-21T01:19:32;6.47;;;2.40;;
31112;SDS011;17763;48.730;9.136;2023-11-21T01:21:58;4.25;;;1.90;;
31112;SDS011;17763;48.730;9.136;2023-11-21T01:24:26;8.52;;;1.98;;
31112;SDS011;17763;48.730;9.136;2023-11-21T01:26:51;4.55;;;1.83;;
31112;SDS011;17763;48.730;9.136;2023-11-21T01:29:21;9.00;;;2.10;;
31112;SDS011;17763;48.730;9.136;2023-11-21T01:31:47;2.22;;;1.38;;
31112;SDS011;17763;48.730;9.136;2023-11-21T01:34:12;2.75;;;1.80;;
31112;SDS011;17763;48.730;9.136;2023-11-21T01:36:39;4.13;;;1.90;;
31112;SDS011;17763;48.730;9.136;2023-11-21T01:39:05;3.40;;;1.70;;
31112;SDS011;17763;48.730;9.136;2023-11-21T01:41:33;5.30;;;1.63;;
31112;SDS011;17763;48.730;9.136;2023-11-21T01:44:00;3.40;;;1.65;;
31112;SDS011;17763;48.730;9.136;2023-11-21T01:46:25;7.18;;;1.65;;
31112;SDS011;17763;48.730;9.136;2023-11-21T01:48:51;5.22;;;1.75;;
31112;SDS011;17763;48.730;9.136;2023-11-21T01:51:19;4.60;;;1.73;;
31112;SDS011;17763;48.730;9.136;2023-11-21T01:53:45;5.97;;;1.83;;
31112;SDS011;17763;48.730;9.136;2023-11-21T01:56:14;5.25;;;1.95;;
31112;SDS011;17763;48.730;9.136;2023-11-21T01:58:40;6.75;;;1.65;;
31112;SDS011;17763;48.730;9.136;2023-11-21T02:01:07;3.50;;;1.33;;
31112;SDS011;17763;48.730;9.136;2023-11-21T02:03:33;3.97;;;1.70;;
31112;SDS011;17763;48.730;9.136;2023-11-21T02:06:00;3.13;;;1.23;;
31112;SDS011;17763;48.730;9.136;2023-11-21T02:08:30;3.58;;;1.42;;
31112;SDS011;17763;48.730;9.136;2023-11-21T02:10:58;3.85;;;1.73;;
31112;SDS011;17763;48.730;9.136;2023-11-21T02:13:27;4.10;;;1.30;;
31112;SDS011;17763;48.730;9.136;2023-11-21T02:15:53;2.92;;;1.58;;
31112;SDS011;17763;48.730;9.136;2023-11-21T02:18:21;3.33;;;1.40;;
31112;SDS011;17763;48.730;9.136;2023-11-21T02:20:49;1.98;;;1.20;;
31112;SDS011;17763;48.730;9.136;2023-11-21T02:23:18;1.88;;;1.67;;
31112;SDS011;17763;48.730;9.136;2023-11-21T02:25:46;3.30;;;1.30;;
31112;SDS011;17763;48.730;9.136;2023-11-21T02:28:12;2.90;;;1.40;;
31112;SDS011;17763;48.730;9.136;2023-11-21T02:30:40;5.82;;;1.42;;
31112;SDS011;17763;48.730;9.136;2023-11-21T02:33:07;4.68;;;1.73;;
31112;SDS011;17763;48.730;9.136;2023-11-21T02:35:33;1.38;;;1.23;;
31112;SDS011;17763;48.730;9.136;2023-11-21T02:37:59;2.13;;;1.58;;
31112;SDS011;17763;48.730;9.136;2023-11-21T02:40:25;5.03;;;1.20;;
31112;SDS011;17763;48.730;9.136;2023-11-21T02:42:51;2.10;;;1.20;;
31112;SDS011;17763;48.730;9.136;2023-11-21T02:45:20;3.88;;;1.30;;
31112;SDS011;17763;48.730;9.136;2023-11-21T02:47:46;2.45;;;1.10;;
31112;SDS011;17763;48.730;9.136;2023-11-21T02:50:12;2.38;;;1.00;;
31112;SDS011;17763;48.730;9.136;2023-11-21T02:52:38;2.88;;;1.10;;
31112;SDS011;17763;48.730;9.136;2023-11-21T02:55:07;2.13;;;0.85;;
31112;SDS011;17763;48.730;9.136;2023-11-21T02:57:33;3.85;;;1.30;;
31112;SDS011;17763;48.730;9.136;2023-11-21T03:00:01;3.70;;;1.25;;
31112;SDS011;17763;48.730;9.136;2023-11-21T03:04:58;4.13;;;1.38;;
31112;SDS011;17763;48.730;9.136;2023-11-21T03:07:24;3.08;;;1.60;;
31112;SDS011;17763;48.730;9.136;2023-11-21T03:09:50;3.95;;;1.48;;
31112;SDS011;17763;48.730;9.136;2023-11-21T03:12:18;6.13;;;1.05;;
31112;SDS011;17763;48.730;9.136;2023-11-21T03:14:44;3.97;;;1.27;;
31112;SDS011;17763;48.730;9.136;2023-11-21T03:17:12;2.08;;;1.02;;
31112;SDS011;17763;48.730;9.136;2023-11-21T03:19:43;2.45;;;1.10;;
31112;SDS011;17763;48.730;9.136;2023-11-21T03:22:11;2.90;;;1.15;;
31112;SDS011;17763;48.730;9.136;2023-11-21T03:24:37;1.90;;;0.85;;
31112;SDS011;17763;48.730;9.136;2023-11-21T03:27:03;2.40;;;1.00;;
31112;SDS011;17763;48.730;9.136;2023-11-21T03:29:31;3.28;;;1.08;;
31112;SDS011;17763;48.730;9.136;2023-11-21T03:31:57;3.50;;;0.88;;
31112;SDS011;17763;48.730;9.136;2023-11-21T03:34:26;4.05;;;1.20;;
31112;SDS011;17763;48.730;9.136;2023-11-21T03:36:55;3.50;;;1.17;;
31112;SDS011;17763;48.730;9.136;2023-11-21T03:39:21;3.38;;;1.10;;
31112;SDS011;17763;48.730;9.136;2023-11-21T03:41:49;1.13;;;1.02;;
31112;SDS011;17763;48.730;9.136;2023-11-21T03:44:17;1.58;;;0.90;;
31112;SDS011;17763;48.730;9.136;2023-11-21T03:46:43;2.65;;;1.13;;
31112;SDS011;17763;48.730;9.136;2023-11-21T03:49:09;3.00;;;1.25;;
31112;SDS011;17763;48.730;9.136;2023-11-21T03:51:36;2.25;;;1.05;;
31112;SDS011;17763;48.730;9.136;2023-11-21T03:54:02;3.45;;;1.10;;
31112;SDS011;17763;48.730;9.136;2023-11-21T03:56:30;3.45;;;0.75;;
31112;SDS011;17763;48.730;9.136;2023-11-21T03:58:56;2.90;;;0.98;;
31112;SDS011;17763;48.730;9.136;2023-11-21T04:01:22;1.83;;;0.95;;
31112;SDS011;17763;48.730;9.136;2023-11-21T04:03:51;1.83;;;1.48;;
31112;SDS011;17763;48.730;9.136;2023-11-21T04:06:17;2.75;;;1.27;;
31112;SDS011;17763;48.730;9.136;2023-11-21T04:08:45;1.80;;;1.02;;
31112;SDS011;17763;48.730;9.136;2023-11-21T04:11:11;1.40;;;0.88;;
31112;SDS011;17763;48.730;9.136;2023-11-21T04:13:38;1.88;;;0.68;;
31112;SDS011;17763;48.730;9.136;2023-11-21T04:16:07;2.28;;;0.85;;
31112;SDS011;17763;48.730;9.136;2023-11-21T04:18:36;2.80;;;0.88;;
31112;SDS011;17763;48.730;9.136;2023-11-21T04:21:03;2.03;;;0.80;;
31112;SDS011;17763;48.730;9.136;2023-11-21T04:23:29;0.75;;;0.75;;
31112;SDS011;17763;48.730;9.136;2023-11-21T04:25:56;1.30;;;0.80;;
31112;SDS011;17763;48.730;9.136;2023-11-21T04:28:25;2.05;;;0.75;;
31112;SDS011;17763;48.730;9.136;2023-11-21T04:30:50;2.90;;;1.42;;
31112;SDS011;17763;48.730;9.136;2023-11-21T04:33:16;2.97;;;0.95;;
31112;SDS011;17763;48.730;9.136;2023-11-21T04:35:42;1.08;;;0.98;;
31112;SDS011;17763;48.730;9.136;2023-11-21T04:38:11;1.95;;;0.80;;
31112;SDS011;17763;48.730;9.136;2023-11-21T04:40:39;1.42;;;1.00;;
31112;SDS011;17763;48.730;9.136;2023-11-21T04:43:04;2.65;;;0.93;;
31112;SDS011;17763;48.730;9.136;2023-11-21T04:45:31;2.25;;;0.80;;
31112;SDS011;17763;48.730;9.136;2023-11-21T04:47:56;2.78;;;1.15;;
31112;SDS011;17763;48.730;9.136;2023-11-21T04:50:22;2.50;;;0.93;;
31112;SDS011;17763;48.730;9.136;2023-11-21T04:52:52;1.70;;;0.73;;
31112;SDS011;17763;48.730;9.136;2023-11-21T04:55:20;1.65;;;0.90;;
31112;SDS011;17763;48.730;9.136;2023-11-21T04:57:46;0.70;;;0.70;;
31112;SDS011;17763;48.730;9.136;2023-11-21T05:00:12;0.98;;;0.88;;
31112;SDS011;17763;48.730;9.136;2023-11-21T05:02:39;2.30;;;0.68;;
31112;SDS011;17763;48.730;9.136;2023-11-21T05:05:09;1.25;;;1.15;;
31112;SDS011;17763;48.730;9.136;2023-11-21T05:07:35;1.70;;;0.80;;
31112;SDS011;17763;48.730;9.136;2023-11-21T05:10:01;3.20;;;0.80;;
31112;SDS011;17763;48.730;9.136;2023-11-21T05:12:30;2.33;;;0.77;;
31112;SDS011;17763;48.730;9.136;2023-11-21T05:15:03;1.73;;;0.70;;
31112;SDS011;17763;48.730;9.136;2023-11-21T05:17:36;0.77;;;0.52;;
31112;SDS011;17763;48.730;9.136;2023-11-21T05:20:04;1.45;;;0.70;;
31112;SDS011;17763;48.730;9.136;2023-11-21T05:22:33;3.03;;;1.00;;
31112;SDS011;17763;48.730;9.136;2023-11-21T05:24:59;2.65;;;0.80;;
31112;SDS011;17763;48.730;9.136;2023-11-21T05:27:26;0.60;;;0.60;;
31112;SDS011;17763;48.730;9.136;2023-11-21T05:29:53;2.08;;;0.60;;
31112;SDS011;17763;48.730;9.136;2023-11-21T05:32:19;1.15;;;0.90;;
31112;SDS011;17763;48.730;9.136;2023-11-21T05:34:47;0.70;;;0.70;;
31112;SDS011;17763;48.730;9.136;2023-11-21T05:37:16;0.98;;;0.55;;
31112;SDS011;17763;48.730;9.136;2023-11-21T05:39:42;1.65;;;0.82;;
31112;SDS011;17763;48.730;9.136;2023-11-21T05:42:08;2.15;;;0.60;;
31112;SDS011;17763;48.730;9.136;2023-11-21T05:44:40;2.35;;;0.98;;
31112;SDS011;17763;48.730;9.136;2023-11-21T05:47:08;2.03;;;0.88;;
31112;SDS011;17763;48.730;9.136;2023-11-21T05:49:34;1.10;;;0.98;;
31112;SDS011;17763;48.730;9.136;2023-11-21T05:52:00;1.38;;;1.25;;
31112;SDS011;17763;48.730;9.136;2023-11-21T05:54:28;1.20;;;0.90;;
31112;SDS011;17763;48.730;9.136;2023-11-21T05:56:54;0.73;;;0.73;;
31112;SDS011;17763;48.730;9.136;2023-11-21T05:59:20;1.15;;;0.90;;
31112;SDS011;17763;48.730;9.136;2023-11-21T06:01:45;2.28;;;0.88;;
31112;SDS011;17763;48.730;9.136;2023-11-21T06:04:13;1.10;;;0.93;;
31112;SDS011;17763;48.730;9.136;2023-11-21T06:06:39;1.35;;;0.90;;
31112;SDS011;17763;48.730;9.136;2023-11-21T06:09:05;1.55;;;1.35;;
31112;SDS011;17763;48.730;9.136;2023-11-21T06:11:39;1.20;;;1.08;;
31112;SDS011;17763;48.730;9.136;2023-11-21T06:14:05;1.13;;;1.13;;
31112;SDS011;17763;48.730;9.136;2023-11-21T06:16:33;1.70;;;1.30;;
31112;SDS011;17763;48.730;9.136;2023-11-21T06:19:03;1.40;;;1.30;;
31112;SDS011;17763;48.730;9.136;2023-11-21T06:21:32;2.05;;;1.27;;
31112;SDS011;17763;48.730;9.136;2023-11-21T06:24:01;1.30;;;1.20;;
31112;SDS011;17763;48.730;9.136;2023-11-21T06:26:27;1.80;;;1.30;;
31112;SDS011;17763;48.730;9.136;2023-11-21T06:28:53;1.60;;;1.50;;
31112;SDS011;17763;48.730;9.136;2023-11-21T06:31:24;2.15;;;1.38;;
31112;SDS011;17763;48.730;9.136;2023-11-21T06:33:52;5.95;;;1.60;;
31112;SDS011;17763;48.730;9.136;2023-11-21T06:36:18;1.50;;;1.40;;
31112;SDS011;17763;48.730;9.136;2023-11-21T06:38:43;2.00;;;1.50;;
31112;SDS011;17763;48.730;9.136;2023-11-21T06:41:10;4.85;;;1.60;;
31112;SDS011;17763;48.730;9.136;2023-11-21T06:43:38;6.70;;;1.30;;
31112;SDS011;17763;48.730;9.136;2023-11-21T06:46:06;1.83;;;1.30;;
31112;SDS011;17763;48.730;9.136;2023-11-21T06:48:32;2.28;;;1.63;;
31112;SDS011;17763;48.730;9.136;2023-11-21T06:50:59;2.42;;;1.35;;
31112;SDS011;17763;48.730;9.136;2023-11-21T06:53:27;1.40;;;1.30;;
31112;SDS011;17763;48.730;9.136;2023-11-21T06:55:53;2.00;;;1.40;;
31112;SDS011;17763;48.730;9.136;2023-11-21T06:58:18;4.40;;;1.58;;
31112;SDS011;17763;48.730;9.136;2023-11-21T07:00:44;3.42;;;2.00;;
31112;SDS011;17763;48.730;9.136;2023-11-21T07:03:11;2.55;;;1.38;;
31112;SDS011;17763;48.730;9.136;2023-11-21T07:05:37;1.13;;;1.02;;
31112;SDS011;17763;48.730;9.136;2023-11-21T07:08:03;2.15;;;1.35;;
31112;SDS011;17763;48.730;9.136;2023-11-21T07:10:29;1.50;;;1.13;;
31112;SDS011;17763;48.730;9.136;2023-11-21T07:12:55;2.25;;;1.40;;
31112;SDS011;17763;48.730;9.136;2023-11-21T07:15:22;6.20;;;1.30;;
31112;SDS011;17763;48.730;9.136;2023-11-21T07:17:47;3.58;;;1.50;;
31112;SDS011;17763;48.730;9.136;2023-11-21T07:20:13;3.38;;;1.55;;
31112;SDS011;17763;48.730;9.136;2023-11-21T07:22:42;4.43;;;1.88;;
31112;SDS011;17763;48.730;9.136;2023-11-21T07:25:08;2.00;;;1.55;;
31112;SDS011;17763;48.730;9.136;2023-11-21T07:27:34;1.42;;;1.30;;
31112;SDS011;17763;48.730;9.136;2023-11-21T07:30:01;2.05;;;1.45;;
31112;SDS011;17763;48.730;9.136;2023-11-21T07:32:32;1.17;;;1.15;;
31112;SDS011;17763;48.730;9.136;2023-11-21T07:35:00;1.08;;;0.98;;
31112;SDS011;17763;48.730;9.136;2023-11-21T07:37:30;3.30;;;1.40;;
31112;SDS011;17763;48.730;9.136;2023-11-21T07:39:56;2.13;;;1.45;;
31112;SDS011;17763;48.730;9.136;2023-11-21T07:42:24;1.95;;;1.58;;
31112;SDS011;17763;48.730;9.136;2023-11-21T07:44:55;2.60;;;1.67;;
31112;SDS011;17763;48.730;9.136;2023-11-21T07:47:21;2.80;;;2.00;;
31112;SDS011;17763;48.730;9.136;2023-11-21T07:49:47;2.70;;;2.38;;
31112;SDS011;17763;48.730;9.136;2023-11-21T07:52:15;4.68;;;1.80;;
31112;SDS011;17763;48.730;9.136;2023-11-21T07:54:41;6.72;;;2.13;;
31112;SDS011;17763;48.730;9.136;2023-11-21T07:57:07;4.78;;;2.20;;
31112;SDS011;17763;48.730;9.136;2023-11-21T07:59:32;2.13;;;1.92;;
31112;SDS011;17763;48.730;9.136;2023-11-21T08:01:58;6.18;;;2.78;;
31112;SDS011;17763;48.730;9.136;2023-11-21T08:04:29;4.97;;;2.08;;
31112;SDS011;17763;48.730;9.136;2023-11-21T08:06:54;7.07;;;2.42;;
31112;SDS011;17763;48.730;9.136;2023-11-21T08:09:20;7.95;;;2.85;;
31112;SDS011;17763;48.730;9.136;2023-11-21T08:11:49;5.82;;;2.25;;
31112;SDS011;17763;48.730;9.136;2023-11-21T08:14:15;2.22;;;2.00;;
31112;SDS011;17763;48.730;9.136;2023-11-21T08:16:42;2.38;;;1.90;;
31112;SDS011;17763;48.730;9.136;2023-11-21T08:19:07;3.45;;;2.10;;
31112;SDS011;17763;48.730;9.136;2023-11-21T08:21:34;3.22;;;2.10;;
31112;SDS011;17763;48.730;9.136;2023-11-21T08:24:05;4.85;;;2.42;;
31112;SDS011;17763;48.730;9.136;2023-11-21T08:26:31;6.35;;;2.10;;
31112;SDS011;17763;48.730;9.136;2023-11-21T08:28:57;2.33;;;2.03;;
31112;SDS011;17763;48.730;9.136;2023-11-21T08:31:26;4.25;;;2.63;;
31112;SDS011;17763;48.730;9.136;2023-11-21T08:33:51;3.30;;;2.05;;
31112;SDS011;17763;48.730;9.136;2023-11-21T08:36:20;5.07;;;2.38;;
31112;SDS011;17763;48.730;9.136;2023-11-21T08:38:48;3.58;;;1.90;;
31112;SDS011;17763;48.730;9.136;2023-11-21T08:41:16;4.55;;;1.92;;
31112;SDS011;17763;48.730;9.136;2023-11-21T08:43:42;4.97;;;2.38;;
31112;SDS011;17763;48.730;9.136;2023-11-21T08:46:10;4.10;;;2.15;;
31112;SDS011;17763;48.730;9.136;2023-11-21T08:48:36;2.95;;;1.95;;
31112;SDS011;17763;48.730;9.136;2023-11-21T08:51:02;5.97;;;2.70;;
31112;SDS011;17763;48.730;9.136;2023-11-21T08:53:29;2.17;;;1.98;;
31112;SDS011;17763;48.730;9.136;2023-11-21T08:55:56;2.45;;;1.90;;
31112;SDS011;17763;48.730;9.136;2023-11-21T08:58:22;4.38;;;1.88;;
31112;SDS011;17763;48.730;9.136;2023-11-21T09:00:47;3.30;;;2.40;;
31112;SDS011;17763;48.730;9.136;2023-11-21T09:03:16;2.55;;;2.10;;
31112;SDS011;17763;48.730;9.136;2023-11-21T09:05:41;5.07;;;2.25;;
31112;SDS011;17763;48.730;9.136;2023-11-21T09:08:07;5.22;;;2.00;;
31112;SDS011;17763;48.730;9.136;2023-11-21T09:10:35;5.20;;;1.48;;
31112;SDS011;17763;48.730;9.136;2023-11-21T09:13:01;3.15;;;1.50;;
31112;SDS011;17763;48.730;9.136;2023-11-21T09:15:27;2.00;;;1.63;;
31112;SDS011;17763;48.730;9.136;2023-11-21T09:17:53;1.88;;;1.48;;
31112;SDS011;17763;48.730;9.136;2023-11-21T09:20:19;2.20;;;1.38;;
31112;SDS011;17763;48.730;9.136;2023-11-21T09:22:48;3.10;;;1.77;;
31112;SDS011;17763;48.730;9.136;2023-11-21T09:25:14;3.47;;;1.83;;
31112;SDS011;17763;48.730;9.136;2023-11-21T09:27:45;3.97;;;1.27;;
31112;SDS011;17763;48.730;9.136;2023-11-21T09:30:13;1.02;;;0.93;;
31112;SDS011;17763;48.730;9.136;2023-11-21T09:32:39;1.92;;;1.00;;
31112;SDS011;17763;48.730;9.136;2023-11-21T09:35:05;0.95;;;0.77;;
31112;SDS011;17763;48.730;9.136;2023-11-21T09:37:39;0.68;;;0.68;;
31112;SDS011;17763;48.730;9.136;2023-11-21T09:40:09;0.88;;;0.70;;
31112;SDS011;17763;48.730;9.136;2023-11-21T09:42:39;1.33;;;0.80;;
31112;SDS011;17763;48.730;9.136;2023-11-21T09:45:27;1.85;;;0.93;;
31112;SDS011;17763;48.730;9.136;2023-11-21T09:47:55;1.45;;;0.88;;
31112;SDS011;17763;48.730;9.136;2023-11-21T09:50:21;3.75;;;0.85;;
31112;SDS011;17763;48.730;9.136;2023-11-21T09:52:49;0.52;;;0.52;;
31112;SDS011;17763;48.730;9.136;2023-11-21T09:55:27;0.80;;;0.60;;
31112;SDS011;17763;48.730;9.136;2023-11-21T09:58:00;1.38;;;0.73;;
31112;SDS011;17763;48.730;9.136;2023-11-21T10:00:32;0.93;;;0.93;;
31112;SDS011;17763;48.730;9.136;2023-11-21T10:02:59;1.63;;;0.77;;
31112;SDS011;17763;48.730;9.136;2023-11-21T10:05:25;1.02;;;0.98;;
31112;SDS011;17763;48.730;9.136;2023-11-21T10:07:51;1.08;;;0.90;;
31112;SDS011;17763;48.730;9.136;2023-11-21T10:10:19;1.08;;;1.02;;
31112;SDS011;17763;48.730;9.136;2023-11-21T10:12:49;1.30;;;1.20;;
31112;SDS011;17763;48.730;9.136;2023-11-21T10:15:20;3.03;;;1.20;;
31112;SDS011;17763;48.730;9.136;2023-11-21T10:17:48;2.00;;;1.45;;
31112;SDS011;17763;48.730;9.136;2023-11-21T10:20:14;2.03;;;1.00;;
31112;SDS011;17763;48.730;9.136;2023-11-21T10:22:42;1.73;;;0.90;;
31112;SDS011;17763;48.730;9.136;2023-11-21T10:25:11;1.10;;;1.00;;
31112;SDS011;17763;48.730;9.136;2023-11-21T10:27:41;0.80;;;0.80;;
31112;SDS011;17763;48.730;9.136;2023-11-21T10:30:10;1.85;;;1.20;;
31112;SDS011;17763;48.730;9.136;2023-11-21T10:32:41;1.50;;;1.25;;
31112;SDS011;17763;48.730;9.136;2023-11-21T10:35:09;1.23;;;1.13;;
31112;SDS011;17763;48.730;9.136;2023-11-21T10:37:39;1.52;;;0.90;;
31112;SDS011;17763;48.730;9.136;2023-11-21T10:40:11;1.23;;;0.95;;
31112;SDS011;17763;48.730;9.136;2023-11-21T10:42:39;2.05;;;1.40;;
31112;SDS011;17763;48.730;9.136;2023-11-21T10:45:06;1.65;;;1.08;;
31112;SDS011;17763;48.730;9.136;2023-11-21T10:47:38;2.17;;;1.20;;
31112;SDS011;17763;48.730;9.136;2023-11-21T10:50:05;2.35;;;1.42;;
31112;SDS011;17763;48.730;9.136;2023-11-21T10:52:36;2.45;;;1.50;;
31112;SDS011;17763;48.730;9.136;2023-11-21T10:55:16;1.42;;;1.33;;
31112;SDS011;17763;48.730;9.136;2023-11-21T10:57:44;1.10;;;1.10;;
31112;SDS011;17763;48.730;9.136;2023-11-21T11:00:13;1.60;;;1.13;;
31112;SDS011;17763;48.730;9.136;2023-11-21T11:02:41;1.70;;;1.30;;
31112;SDS011;17763;48.730;9.136;2023-11-21T11:05:07;1.52;;;1.20;;
31112;SDS011;17763;48.730;9.136;2023-11-21T11:07:36;4.88;;;1.50;;
31112;SDS011;17763;48.730;9.136;2023-11-21T11:10:08;1.65;;;1.48;;
31112;SDS011;17763;48.730;9.136;2023-11-21T11:12:41;1.55;;;1.45;;
31112;SDS011;17763;48.730;9.136;2023-11-21T11:15:13;4.68;;;1.80;;
31112;SDS011;17763;48.730;9.136;2023-11-21T11:17:41;3.25;;;2.05;;
31112;SDS011;17763;48.730;9.136;2023-11-21T11:20:11;2.45;;;1.80;;
31112;SDS011;17763;48.730;9.136;2023-11-21T11:28:10;4.53;;;2.90;;
31112;SDS011;17763;48.730;9.136;2023-11-21T11:33:44;1.92;;;1.73;;
31112;SDS011;17763;48.730;9.136;2023-11-21T11:38:55;2.75;;;1.95;;
31112;SDS011;17763;48.730;9.136;2023-11-21T11:41:28;2.00;;;1.90;;
31112;SDS011;17763;48.730;9.136;2023-11-21T11:44:02;5.60;;;1.90;;
31112;SDS011;17763;48.730;9.136;2023-11-21T11:46:44;3.22;;;1.25;;
31112;SDS011;17763;48.730;9.136;2023-11-21T11:49:23;1.40;;;1.30;;
31112;SDS011;17763;48.730;9.136;2023-11-21T11:54:59;3.28;;;1.50;;
31112;SDS011;17763;48.730;9.136;2023-11-21T11:57:27;5.03;;;2.72;;
31112;SDS011;17763;48.730;9.136;2023-11-21T12:00:08;3.53;;;1.80;;
31112;SDS011;17763;48.730;9.136;2023-11-21T12:02:43;2.42;;;1.50;;
31112;SDS011;17763;48.730;9.136;2023-11-21T12:05:19;3.75;;;1.10;;
31112;SDS011;17763;48.730;9.136;2023-11-21T12:10:19;1.13;;;1.10;;
31112;SDS011;17763;48.730;9.136;2023-11-21T12:12:50;1.80;;;1.35;;
31112;SDS011;17763;48.730;9.136;2023-11-21T12:15:20;1.10;;;1.00;;
31112;SDS011;17763;48.730;9.136;2023-11-21T12:17:47;1.60;;;0.90;;
31112;SDS011;17763;48.730;9.136;2023-11-21T12:20:14;2.33;;;1.02;;
31112;SDS011;17763;48.730;9.136;2023-11-21T12:22:44;0.90;;;0.85;;
31112;SDS011;17763;48.730;9.136;2023-11-21T12:25:15;1.10;;;1.10;;
31112;SDS011;17763;48.730;9.136;2023-11-21T12:27:43;0.97;;;0.90;;
31112;SDS011;17763;48.730;9.136;2023-11-21T12:30:16;1.23;;;1.13;;
31112;SDS011;17763;48.730;9.136;2023-11-21T12:32:54;1.30;;;1.20;;
31112;SDS011;17763;48.730;9.136;2023-11-21T12:35:30;2.08;;;1.23;;
31112;SDS011;17763;48.730;9.136;2023-11-21T12:37:59;1.25;;;1.15;;
31112;SDS011;17763;48.730;9.136;2023-11-21T12:40:27;1.48;;;1.38;;
31112;SDS011;17763;48.730;9.136;2023-11-21T12:42:57;1.30;;;1.27;;
31112;SDS011;17763;48.730;9.136;2023-11-21T12:45:25;1.30;;;1.20;;
31112;SDS011;17763;48.730;9.136;2023-11-21T12:50:34;2.15;;;1.50;;
31112;SDS011;17763;48.730;9.136;2023-11-21T12:53:02;1.40;;;1.30;;
31112;SDS011;17763;48.730;9.136;2023-11-21T12:55:32;2.97;;;2.78;;
31112;SDS011;17763;48.730;9.136;2023-11-21T12:57:59;1.90;;;1.80;;
31112;SDS011;17763;48.730;9.136;2023-11-21T13:00:34;1.73;;;1.60;;
31112;SDS011;17763;48.730;9.136;2023-11-21T13:03:02;1.40;;;1.30;;
31112;SDS011;17763;48.730;9.136;2023-11-21T13:05:36;1.27;;;1.25;;
31112;SDS011;17763;48.730;9.136;2023-11-21T13:08:04;1.70;;;1.60;;
31112;SDS011;17763;48.730;9.136;2023-11-21T13:10:37;1.77;;;1.65;;
31112;SDS011;17763;48.730;9.136;2023-11-21T13:13:10;2.88;;;2.40;;
31112;SDS011;17763;48.730;9.136;2023-11-21T13:15:46;4.15;;;3.78;;
31112;SDS011;17763;48.730;9.136;2023-11-21T13:18:15;2.88;;;2.35;;
31112;SDS011;17763;48.730;9.136;2023-11-21T13:20:42;1.77;;;1.67;;
31112;SDS011;17763;48.730;9.136;2023-11-21T13:23:08;2.60;;;2.03;;
31112;SDS011;17763;48.730;9.136;2023-11-21T13:25:37;1.75;;;1.65;;
31112;SDS011;17763;48.730;9.136;2023-11-21T13:28:10;2.38;;;2.20;;
31112;SDS011;17763;48.730;9.136;2023-11-21T13:30:36;1.60;;;1.50;;
31112;SDS011;17763;48.730;9.136;2023-11-21T13:33:04;1.75;;;1.58;;
31112;SDS011;17763;48.730;9.136;2023-11-21T13:35:32;1.80;;;1.70;;
31112;SDS011;17763;48.730;9.136;2023-11-21T13:38:04;1.48;;;1.40;;
31112;SDS011;17763;48.730;9.136;2023-11-21T13:40:31;3.17;;;1.30;;
31112;SDS011;17763;48.730;9.136;2023-11-21T13:43:05;1.10;;;1.10;;
31112;SDS011;17763;48.730;9.136;2023-11-21T13:45:34;1.73;;;1.63;;
31112;SDS011;17763;48.730;9.136;2023-11-21T13:48:01;2.08;;;0.77;;
31112;SDS011;17763;48.730;9.136;2023-11-21T13:50:30;0.73;;;0.50;;
31112;SDS011;17763;48.730;9.136;2023-11-21T13:53:01;0.50;;;0.50;;
31112;SDS011;17763;48.730;9.136;2023-11-21T13:55:34;1.17;;;0.65;;
31112;SDS011;17763;48.730;9.136;2023-11-21T13:58:01;0.80;;;0.80;;
31112;SDS011;17763;48.730;9.136;2023-11-21T14:00:28;2.05;;;0.93;;
31112;SDS011;17763;48.730;9.136;2023-11-21T14:03:13;1.50;;;0.90;;
31112;SDS011;17763;48.730;9.136;2023-11-21T14:05:47;1.10;;;1.00;;
31112;SDS011;17763;48.730;9.136;2023-11-21T14:08:17;1.88;;;1.02;;
31112;SDS011;17763;48.730;9.136;2023-11-21T14:10:45;4.30;;;1.50;;
31112;SDS011;17763;48.730;9.136;2023-11-21T14:13:16;1.30;;;1.20;;
31112;SDS011;17763;48.730;9.136;2023-11-21T14:15:42;2.85;;;1.90;;
31112;SDS011;17763;48.730;9.136;2023-11-21T14:18:11;1.83;;;1.73;;
31112;SDS011;17763;48.730;9.136;2023-11-21T14:20:39;2.22;;;2.03;;
31112;SDS011;17763;48.730;9.136;2023-11-21T14:23:06;3.03;;;2.35;;
31112;SDS011;17763;48.730;9.136;2023-11-21T14:25:33;2.53;;;2.30;;
31112;SDS011;17763;48.730;9.136;2023-11-21T14:27:59;4.25;;;2.65;;
31112;SDS011;17763;48.730;9.136;2023-11-21T14:30:25;3.13;;;2.90;;
31112;SDS011;17763;48.730;9.136;2023-11-21T14:32:52;3.05;;;2.70;;
31112;SDS011;17763;48.730;9.136;2023-11-21T14:35:20;2.53;;;2.30;;
31112;SDS011;17763;48.730;9.136;2023-11-21T14:37:46;2.67;;;2.47;;
31112;SDS011;17763;48.730;9.136;2023-11-21T14:40:11;3.60;;;2.42;;
31112;SDS011;17763;48.730;9.136;2023-11-21T14:42:40;3.00;;;2.75;;
31112;SDS011;17763;48.730;9.136;2023-11-21T14:45:07;2.97;;;2.78;;
31112;SDS011;17763;48.730;9.136;2023-11-21T14:47:37;4.35;;;3.15;;
31112;SDS011;17763;48.730;9.136;2023-11-21T14:50:07;3.08;;;2.88;;
31112;SDS011;17763;48.730;9.136;2023-11-21T14:52:53;2.85;;;2.60;;
31112;SDS011;17763;48.730;9.136;2023-11-21T14:55:24;3.20;;;3.00;;
31112;SDS011;17763;48.730;9.136;2023-11-21T14:58:10;3.33;;;3.13;;
31112;SDS011;17763;48.730;9.136;2023-11-21T15:00:40;6.72;;;3.42;;
31112;SDS011;17763;48.730;9.136;2023-11-21T15:03:09;3.40;;;3.20;;
31112;SDS011;17763;48.730;9.136;2023-11-21T15:05:40;3.77;;;3.47;;
31112;SDS011;17763;48.730;9.136;2023-11-21T15:08:06;3.47;;;3.13;;
31112;SDS011;17763;48.730;9.136;2023-11-21T15:10:51;3.28;;;3.08;;
31112;SDS011;17763;48.730;9.136;2023-11-21T15:13:20;3.50;;;3.22;;
31112;SDS011;17763;48.730;9.136;2023-11-21T15:15:52;4.68;;;3.90;;